Airfield :
LOGIN :

Register | Disclaimer

   EN    FR    IT 

 










Legend :    VFR   Marginal VFR   IFR   Intensive IFR   Very Intensive IFR
Visi :
Ceiling :
>= 8 km
>= 3000ft
5 to 8 km
1000 to 3000 ft
1500m to 5 km
500 to 1000 ft
800 to 1500m
200 to 500 ft
< 800m
< 200 ft
Symbols :   Thunderstorms  Fog  Heavy snow  Heavy precipitations  Wind > 20 kt
SIGMETs :     Misc.  Thunderstorms  Icing  Turbulence  Mountain Waves  Volcanic Ashes






- Airport Elevation : 626 ft
- IATA code : CRA


LRCV - Craiova

CURRENT METAR :
  • 072330Z 01006KT CAVOK 03/M05 Q1032

EXPIRED METARs :
  • 072300Z 03006KT CAVOK 02/M04 Q1032
  • 072230Z 34005KT CAVOK 06/M06 Q1032
  • 072200Z 34006KT CAVOK 07/M06 Q1032
  • 072130Z 33006KT CAVOK 07/M06 Q1032
  • 072100Z 34005KT CAVOK 08/M06 Q1032

TAF TAF LRCV
Valid from the 08 at 00:00 until the 08 at 09:00 UTC


072300Z 0800/0809 VRB04KT CAVOK
PROB40
TEMPO 0800/0803 07010KT



MET'MAP, your aeronautical weather chart ! - Copyright ORBIFLY December 2007 - Disclaimer

ORBIFLY MET'MAP TEAM :

Programming & Development : Alexandra Zaïnal
Concept & original design : Baudouin d'Aumeries
Assistance for programming : Marc-Olivier Méhu
Technical & hardware support : Manuel Goepfert

Contact : metmap@orbifly.com




SOURCES & CREDITS :

   NOAA